createdAt,value
2023-02-28T00:01:25.551Z,100674.92
2023-02-28T00:05:02.077Z,100674.80
2023-02-28T00:08:26.040Z,100670.91
2023-02-28T00:11:50.016Z,100672.83
2023-02-28T00:15:14.376Z,100670.99
2023-02-28T00:18:38.860Z,100671.13
2023-02-28T00:22:02.711Z,100670.13
2023-02-28T00:25:28.134Z,100669.85
2023-02-28T00:28:54.664Z,100673.39
2023-02-28T00:32:20.878Z,100675.15
2023-02-28T00:35:47.404Z,100673.69
2023-02-28T00:39:11.462Z,100672.84
2023-02-28T00:42:36.569Z,100671.40
2023-02-28T00:46:02.243Z,100672.18
2023-02-28T00:49:28.831Z,100671.55
2023-02-28T00:52:52.814Z,100670.66
2023-02-28T00:56:17.825Z,100676.60
2023-02-28T00:59:41.804Z,100674.92
2023-02-28T01:03:05.783Z,100677.15
2023-02-28T01:06:29.932Z,100682.27
2023-02-28T01:09:53.792Z,100680.53
2023-02-28T01:13:18.450Z,100678.31
2023-02-28T01:16:42.442Z,100677.88
2023-02-28T01:20:07.012Z,100678.57
2023-02-28T01:23:30.842Z,100674.11
2023-02-28T01:26:54.654Z,100675.92
2023-02-28T01:30:19.049Z,100676.65
2023-02-28T01:33:44.593Z,100677.02
2023-02-28T01:37:08.512Z,100672.61
2023-02-28T01:40:32.530Z,100671.92
2023-02-28T01:44:05.304Z,100666.81
2023-02-28T01:47:41.014Z,100664.63
2023-02-28T01:51:13.579Z,100667.39
2023-02-28T01:54:37.879Z,100666.53
2023-02-28T01:58:06.356Z,100666.38
2023-02-28T02:01:32.802Z,100667.70
2023-02-28T02:05:07.128Z,100669.61
2023-02-28T02:08:31.623Z,100671.17
2023-02-28T02:11:57.642Z,100674.09
2023-02-28T02:15:50.001Z,100672.20
2023-02-28T02:19:28.573Z,100683.92
2023-02-28T02:23:17.945Z,100688.73
2023-02-28T02:27:00.151Z,100693.88
2023-02-28T02:31:08.840Z,100696.63
2023-02-28T02:34:54.111Z,100704.27
2023-02-28T02:38:36.414Z,100704.27
2023-02-28T02:42:05.199Z,100704.23
2023-02-28T02:45:37.935Z,100708.05
2023-02-28T02:49:06.459Z,100706.38
2023-02-28T02:52:37.773Z,100712.80
2023-02-28T02:56:04.099Z,100711.52
2023-02-28T02:59:30.201Z,100709.45
2023-02-28T03:02:57.005Z,100708.44
2023-02-28T03:06:21.355Z,100707.11
2023-02-28T03:09:54.604Z,100705.74
2023-02-28T03:13:36.929Z,100705.40
2023-02-28T03:17:20.653Z,100701.20
2023-02-28T03:21:08.760Z,100701.55
2023-02-28T03:24:47.723Z,100705.63
2023-02-28T03:28:15.837Z,100706.16
2023-02-28T03:31:44.027Z,100708.78
2023-02-28T03:35:23.248Z,100712.23
2023-02-28T03:38:59.742Z,100716.45
2023-02-28T03:42:27.973Z,100720.31
2023-02-28T03:45:53.614Z,100722.12
2023-02-28T03:49:29.402Z,100720.83
2023-02-28T03:53:13.610Z,100723.77
2023-02-28T03:56:45.654Z,100726.70
2023-02-28T04:00:45.783Z,100727.59
2023-02-28T04:04:14.375Z,100723.96
2023-02-28T04:07:39.421Z,100725.67
2023-02-28T04:11:08.893Z,100729.01
2023-02-28T04:14:32.837Z,100730.94
2023-02-28T04:17:56.814Z,100727.48
2023-02-28T04:21:23.196Z,100731.43
2023-02-28T04:24:47.128Z,100729.97
2023-02-28T04:28:14.131Z,100733.27
2023-02-28T04:31:38.176Z,100730.16
2023-02-28T04:35:04.366Z,100733.55
2023-02-28T04:38:28.225Z,100735.00
2023-02-28T04:41:52.647Z,100738.16
2023-02-28T04:45:16.610Z,100734.90
2023-02-28T04:48:41.701Z,100735.02
2023-02-28T04:52:06.429Z,100732.41
2023-02-28T04:55:30.230Z,100730.83
2023-02-28T04:58:54.242Z,100736.42
2023-02-28T05:02:18.221Z,100736.45
2023-02-28T05:05:42.088Z,100739.27
2023-02-28T05:09:05.927Z,100738.73
2023-02-28T05:12:29.862Z,100743.27
2023-02-28T05:15:53.771Z,100741.42
2023-02-28T05:19:17.765Z,100743.59
2023-02-28T05:22:43.156Z,100748.02
2023-02-28T05:26:07.101Z,100747.98
2023-02-28T05:29:31.012Z,100753.52
2023-02-28T05:32:54.923Z,100755.15
2023-02-28T05:36:18.777Z,100755.27
2023-02-28T05:39:42.695Z,100754.77
2023-02-28T05:43:06.636Z,100754.90
2023-02-28T05:46:30.536Z,100758.80
2023-02-28T05:49:54.399Z,100760.27
2023-02-28T05:53:18.444Z,100762.17
2023-02-28T05:56:45.147Z,100764.61
2023-02-28T06:00:12.551Z,100760.02
2023-02-28T06:03:36.797Z,100765.27
2023-02-28T06:07:00.865Z,100773.42
2023-02-28T06:10:25.026Z,100774.39
2023-02-28T06:13:49.845Z,100775.79
2023-02-28T06:17:13.627Z,100780.30
2023-02-28T06:20:37.602Z,100777.09
2023-02-28T06:24:01.798Z,100785.52
2023-02-28T06:27:25.947Z,100790.65
2023-02-28T06:30:50.114Z,100793.98
2023-02-28T06:34:15.956Z,100792.76
2023-02-28T06:37:41.699Z,100797.77
2023-02-28T06:41:07.144Z,100799.15
2023-02-28T06:44:36.209Z,100800.84
2023-02-28T06:48:01.309Z,100803.42
2023-02-28T06:51:25.522Z,100805.71
2023-02-28T06:55:00.880Z,100802.85
2023-02-28T06:58:24.835Z,100807.04
2023-02-28T07:01:49.315Z,100808.16
2023-02-28T07:05:13.331Z,100816.23
2023-02-28T07:08:38.036Z,100814.88
2023-02-28T07:12:02.059Z,100811.98
2023-02-28T07:15:26.295Z,100813.60
2023-02-28T07:18:50.522Z,100818.02
2023-02-28T07:22:15.956Z,100820.66
2023-02-28T07:25:40.504Z,100816.00
2023-02-28T07:29:04.559Z,100818.02
2023-02-28T07:32:28.426Z,100815.14
2023-02-28T07:35:52.532Z,100815.18
2023-02-28T07:39:16.418Z,100816.93
2023-02-28T07:42:41.454Z,100812.27
2023-02-28T07:46:08.798Z,100809.58
2023-02-28T07:49:33.198Z,100810.70
2023-02-28T07:52:57.273Z,100812.42
2023-02-28T07:56:21.152Z,100811.98
2023-02-28T07:59:46.177Z,100813.21
2023-02-28T08:03:15.102Z,100812.73
2023-02-28T08:06:39.139Z,100809.47
2023-02-28T08:10:03.027Z,100806.85
2023-02-28T08:13:28.342Z,100804.64
2023-02-28T08:16:52.305Z,100799.85
2023-02-28T08:20:16.276Z,100799.43
2023-02-28T08:23:40.257Z,100801.13
2023-02-28T08:27:04.116Z,100800.58
2023-02-28T08:30:28.032Z,100793.16
2023-02-28T08:33:54.241Z,100792.38
2023-02-28T08:37:18.248Z,100797.59
2023-02-28T08:40:42.455Z,100797.05
2023-02-28T08:44:07.205Z,100797.64
2023-02-28T08:47:31.323Z,100797.23
2023-02-28T08:51:27.412Z,100797.93
2023-02-28T08:54:51.740Z,100794.75
2023-02-28T08:58:16.709Z,100795.55
2023-02-28T09:01:42.389Z,100798.94
2023-02-28T09:05:07.169Z,100795.81
2023-02-28T09:08:32.803Z,100795.53
2023-02-28T09:11:57.799Z,100795.77
2023-02-28T09:15:21.654Z,100797.51
2023-02-28T09:18:46.471Z,100797.20
2023-02-28T09:22:12.769Z,100795.80
2023-02-28T09:25:37.204Z,100801.63
2023-02-28T09:29:01.007Z,100800.20
2023-02-28T09:32:25.004Z,100801.64
2023-02-28T09:35:50.540Z,100804.59
2023-02-28T09:39:16.515Z,100801.21
2023-02-28T09:42:41.023Z,100798.78
2023-02-28T09:46:16.428Z,100803.23
2023-02-28T09:49:48.074Z,100798.48
2023-02-28T09:53:22.130Z,100801.92
2023-02-28T09:56:52.921Z,100803.09
2023-02-28T10:00:25.677Z,100806.06
2023-02-28T10:04:01.214Z,100805.20
2023-02-28T10:07:52.848Z,100805.29
2023-02-28T10:11:21.692Z,100808.42
2023-02-28T10:14:49.849Z,100805.05
2023-02-28T10:18:21.949Z,100809.54
2023-02-28T10:21:57.097Z,100802.36
2023-02-28T10:25:27.079Z,100801.85
2023-02-28T10:28:55.364Z,100799.90
2023-02-28T10:32:25.872Z,100793.12
2023-02-28T10:35:50.297Z,100789.18
2023-02-28T10:39:41.537Z,100783.69
2023-02-28T10:43:08.344Z,100783.58
2023-02-28T10:46:35.933Z,100780.42
2023-02-28T10:50:00.196Z,100779.15
2023-02-28T10:53:24.617Z,100772.68
2023-02-28T10:57:09.613Z,100772.53
2023-02-28T11:00:36.964Z,100768.13
2023-02-28T11:04:04.450Z,100766.55
2023-02-28T11:07:37.256Z,100758.93
2023-02-28T11:11:08.779Z,100752.83
2023-02-28T11:14:51.336Z,100748.16
2023-02-28T11:18:15.230Z,100749.19
2023-02-28T11:21:41.137Z,100745.72
2023-02-28T11:25:09.826Z,100739.11
2023-02-28T11:28:39.190Z,100738.19
2023-02-28T11:32:15.496Z,100735.27
2023-02-28T11:35:41.701Z,100734.40
2023-02-28T11:39:13.784Z,100739.41
2023-02-28T11:42:45.787Z,100736.13
2023-02-28T11:46:31.535Z,100728.22
2023-02-28T11:50:20.476Z,100729.89
2023-02-28T11:54:03.386Z,100727.05
2023-02-28T11:57:33.148Z,100722.38
2023-02-28T12:01:00.209Z,100723.48
2023-02-28T12:04:56.952Z,100724.41
2023-02-28T12:08:39.496Z,100716.73
2023-02-28T12:12:03.830Z,100713.26
2023-02-28T12:15:39.780Z,100709.40
2023-02-28T12:19:09.190Z,100709.31
2023-02-28T12:22:40.117Z,100707.44
2023-02-28T12:26:22.459Z,100703.71
2023-02-28T12:29:56.302Z,100703.88
2023-02-28T12:33:28.466Z,100694.91
2023-02-28T12:37:01.849Z,100692.23
2023-02-28T12:40:31.444Z,100693.08
2023-02-28T12:44:02.707Z,100691.58
2023-02-28T12:47:26.623Z,100690.96
2023-02-28T12:50:50.941Z,100689.67
2023-02-28T12:54:30.877Z,100685.25
2023-02-28T12:58:12.858Z,100684.85
2023-02-28T13:01:48.979Z,100677.17
2023-02-28T13:05:31.463Z,100679.88
2023-02-28T13:09:03.141Z,100672.00
2023-02-28T13:12:27.991Z,100667.52
2023-02-28T13:16:12.034Z,100667.42
2023-02-28T13:19:40.607Z,100657.98
2023-02-28T13:23:06.452Z,100654.98
2023-02-28T13:26:33.520Z,100654.42
2023-02-28T13:29:57.378Z,100651.52
2023-02-28T13:33:26.064Z,100644.55
2023-02-28T13:36:50.160Z,100643.83
2023-02-28T13:40:38.237Z,100639.91
2023-02-28T13:44:18.650Z,100634.89
2023-02-28T13:47:46.158Z,100625.08
2023-02-28T13:51:41.767Z,100626.30
2023-02-28T13:55:29.288Z,100626.31
2023-02-28T13:59:16.094Z,100629.34
2023-02-28T14:02:54.882Z,100624.47
2023-02-28T14:06:28.523Z,100624.30
2023-02-28T14:10:06.617Z,100617.40
2023-02-28T14:13:45.785Z,100618.65
2023-02-28T14:17:16.326Z,100611.23
2023-02-28T14:20:43.041Z,100614.77
2023-02-28T14:24:31.843Z,100611.80
2023-02-28T14:28:14.973Z,100607.61
2023-02-28T14:32:09.090Z,100606.45
2023-02-28T14:36:16.876Z,100603.08
2023-02-28T14:40:15.802Z,100598.43
2023-02-28T14:44:16.773Z,100595.08
2023-02-28T14:48:16.841Z,100592.98
2023-02-28T14:52:37.788Z,100591.45
2023-02-28T14:56:44.860Z,100589.44
2023-02-28T15:00:47.747Z,100588.98
2023-02-28T15:04:45.806Z,100583.45
2023-02-28T15:08:43.733Z,100582.05
2023-02-28T15:12:41.740Z,100582.08
2023-02-28T15:16:52.791Z,100575.10
2023-02-28T15:20:54.908Z,100570.96
2023-02-28T15:25:00.778Z,100571.01
2023-02-28T15:28:59.804Z,100564.98
2023-02-28T15:32:57.766Z,100563.83
2023-02-28T15:36:56.783Z,100565.89
2023-02-28T15:41:03.697Z,100568.38
2023-02-28T15:45:01.742Z,100570.27
2023-02-28T15:49:06.793Z,100568.69
2023-02-28T15:53:05.771Z,100561.09
2023-02-28T15:57:07.661Z,100552.95
2023-02-28T16:01:20.389Z,100552.33
2023-02-28T16:05:42.741Z,100558.69
2023-02-28T16:09:40.726Z,100561.15
2023-02-28T16:13:38.699Z,100568.04
2023-02-28T16:17:41.796Z,100566.73
2023-02-28T16:21:40.718Z,100574.02
2023-02-28T16:25:44.671Z,100577.98
2023-02-28T16:29:47.629Z,100578.11
2023-02-28T16:33:48.710Z,100584.48
2023-02-28T16:37:46.816Z,100583.91
2023-02-28T16:41:44.683Z,100589.56
2023-02-28T16:45:45.738Z,100593.73
2023-02-28T16:49:43.758Z,100599.27
2023-02-28T16:53:41.581Z,100603.04
2023-02-28T16:57:39.617Z,100600.45
2023-02-28T17:01:37.781Z,100597.59
2023-02-28T17:05:36.604Z,100595.52
2023-02-28T17:09:43.031Z,100595.76
2023-02-28T17:13:41.560Z,100603.02
2023-02-28T17:17:39.606Z,100601.98
2023-02-28T17:21:37.593Z,100605.98
2023-02-28T17:25:36.625Z,100611.63
2023-02-28T17:29:37.845Z,100612.36
2023-02-28T17:33:35.563Z,100610.20
2023-02-28T17:37:33.660Z,100611.92
2023-02-28T17:41:31.611Z,100611.52
2023-02-28T17:45:30.616Z,100605.25
2023-02-28T17:49:30.763Z,100603.62
2023-02-28T17:53:30.596Z,100598.87
2023-02-28T17:57:31.521Z,100599.13
2023-02-28T18:01:29.589Z,100594.55
2023-02-28T18:05:27.457Z,100594.11
2023-02-28T18:09:25.525Z,100594.71
2023-02-28T18:13:23.466Z,100596.38
2023-02-28T18:17:21.538Z,100597.16
2023-02-28T18:21:20.665Z,100598.23
2023-02-28T18:25:23.478Z,100604.80
2023-02-28T18:29:22.450Z,100601.41
2023-02-28T18:33:20.435Z,100605.71
2023-02-28T18:37:18.500Z,100607.48
2023-02-28T18:41:19.518Z,100605.58
2023-02-28T18:45:17.444Z,100602.02
2023-02-28T18:49:15.444Z,100602.10
2023-02-28T18:53:13.457Z,100600.09
2023-02-28T18:57:13.581Z,100601.02
2023-02-28T19:01:11.578Z,100598.59
2023-02-28T19:05:09.440Z,100604.52
2023-02-28T19:09:16.527Z,100598.61
2023-02-28T19:13:16.563Z,100590.01
2023-02-28T19:17:14.448Z,100581.46
2023-02-28T19:21:14.460Z,100579.45
2023-02-28T19:25:12.442Z,100583.68
2023-02-28T19:29:10.524Z,100575.77
2023-02-28T19:33:08.383Z,100582.39
2023-02-28T19:37:06.474Z,100581.80
2023-02-28T19:41:04.356Z,100580.06
2023-02-28T19:45:02.441Z,100576.50
2023-02-28T19:49:00.341Z,100571.30
2023-02-28T19:53:00.392Z,100574.78
2023-02-28T19:56:58.425Z,100577.87
2023-02-28T20:00:56.441Z,100579.95
2023-02-28T20:04:55.402Z,100573.94
2023-02-28T20:08:54.413Z,100562.95
2023-02-28T20:12:52.386Z,100560.46
2023-02-28T20:16:51.579Z,100562.30
2023-02-28T20:20:49.301Z,100562.30
2023-02-28T20:24:47.306Z,100565.96
2023-02-28T20:28:45.339Z,100557.35
2023-02-28T20:32:45.406Z,100565.76
2023-02-28T20:36:43.267Z,100564.01
2023-02-28T20:40:41.299Z,100559.20
2023-02-28T20:44:39.298Z,100564.72
2023-02-28T20:48:37.308Z,100567.88
2023-02-28T20:52:36.363Z,100567.66
2023-02-28T20:56:36.327Z,100560.61
2023-02-28T21:00:34.249Z,100561.08
2023-02-28T21:04:35.266Z,100565.08
2023-02-28T21:08:33.315Z,100561.73
2023-02-28T21:12:31.322Z,100556.77
2023-02-28T21:16:32.416Z,100561.06
2023-02-28T21:20:30.220Z,100562.06
2023-02-28T21:24:31.233Z,100561.71
2023-02-28T21:28:29.229Z,100552.44
2023-02-28T21:32:27.191Z,100545.42
2023-02-28T21:36:28.414Z,100548.67
2023-02-28T21:40:26.156Z,100561.30
2023-02-28T21:44:25.210Z,100562.36
2023-02-28T21:48:23.123Z,100562.44
2023-02-28T21:52:21.217Z,100554.58
2023-02-28T21:56:22.181Z,100551.61
2023-02-28T22:00:20.176Z,100558.03
2023-02-28T22:04:28.145Z,100564.74
2023-02-28T22:08:26.132Z,100566.84
2023-02-28T22:12:24.162Z,100562.89
2023-02-28T22:16:26.511Z,100563.90
2023-02-28T22:20:27.232Z,100567.46
2023-02-28T22:24:27.190Z,100569.23
2023-02-28T22:28:25.095Z,100574.25
2023-02-28T22:32:23.212Z,100580.27
2023-02-28T22:36:22.093Z,100580.30
2023-02-28T22:40:20.115Z,100569.31
2023-02-28T22:44:19.123Z,100567.38
2023-02-28T22:48:18.149Z,100567.09
2023-02-28T22:52:16.185Z,100564.96
2023-02-28T22:56:15.069Z,100551.08
2023-02-28T23:00:13.025Z,100547.37
2023-02-28T23:04:18.091Z,100549.17
2023-02-28T23:08:16.036Z,100546.56
2023-02-28T23:12:14.097Z,100549.83
2023-02-28T23:16:13.043Z,100550.36
2023-02-28T23:20:11.082Z,100551.03
2023-02-28T23:24:08.994Z,100552.61
2023-02-28T23:28:07.067Z,100557.58
2023-02-28T23:32:05.049Z,100558.04
2023-02-28T23:36:03.041Z,100558.97
2023-02-28T23:40:01.084Z,100555.57
2023-02-28T23:43:58.976Z,100556.91
2023-02-28T23:47:56.971Z,100552.29
2023-02-28T23:51:55.943Z,100556.65
2023-02-28T23:55:59.950Z,100549.61
2023-02-28T23:59:57.969Z,100551.62
